createdAt,value
2017-09-11T00:00:20.568Z,0
2017-09-11T00:01:21.326Z,0
2017-09-11T00:02:21.941Z,0
2017-09-11T00:03:22.546Z,0
2017-09-11T00:04:23.156Z,0
2017-09-11T00:05:23.797Z,0
2017-09-11T00:06:24.586Z,0
2017-09-11T00:07:25.228Z,0
2017-09-11T00:08:25.837Z,0
2017-09-11T00:09:26.479Z,0
2017-09-11T00:10:27.087Z,0
2017-09-11T00:11:27.846Z,0
2017-09-11T00:12:28.463Z,0
2017-09-11T00:13:29.075Z,0
2017-09-11T00:14:29.682Z,0
2017-09-11T00:15:30.324Z,0
2017-09-11T00:16:31.086Z,0
2017-09-11T00:17:31.695Z,0
2017-09-11T00:18:32.311Z,0
2017-09-11T00:19:32.923Z,0
2017-09-11T00:20:33.535Z,0
2017-09-11T00:21:34.293Z,0
2017-09-11T00:22:34.902Z,0
2017-09-11T00:23:35.511Z,0
2017-09-11T00:24:36.119Z,0
2017-09-11T00:25:36.730Z,0
2017-09-11T00:26:37.528Z,0
2017-09-11T00:27:38.140Z,0
2017-09-11T00:28:38.747Z,0
2017-09-11T00:29:39.357Z,0
2017-09-11T00:30:39.972Z,0
2017-09-11T00:31:40.730Z,0
2017-09-11T00:32:41.371Z,0
2017-09-11T00:33:41.988Z,0
2017-09-11T00:34:42.591Z,0
2017-09-11T00:35:43.201Z,0
2017-09-11T00:36:43.965Z,0
2017-09-11T00:37:44.573Z,0
2017-09-11T00:38:45.183Z,0
2017-09-11T00:39:45.791Z,0
2017-09-11T00:40:46.399Z,0
2017-09-11T00:41:47.160Z,0
2017-09-11T00:42:47.769Z,0
2017-09-11T00:43:48.377Z,0
2017-09-11T00:44:48.986Z,0
2017-09-11T00:45:49.595Z,0
2017-09-11T00:46:50.360Z,0
2017-09-11T00:47:50.967Z,0
2017-09-11T00:48:51.607Z,0
2017-09-11T00:49:52.216Z,0
2017-09-11T00:50:52.831Z,0
2017-09-11T00:51:53.589Z,0
2017-09-11T00:52:54.200Z,0
2017-09-11T00:53:54.808Z,0
2017-09-11T00:54:55.449Z,0
2017-09-11T00:55:56.064Z,0
2017-09-11T00:56:56.820Z,0
2017-09-11T00:57:57.433Z,0
2017-09-11T00:58:58.039Z,0
2017-09-11T00:59:58.649Z,0
2017-09-11T01:00:59.259Z,0
2017-09-11T01:02:00.018Z,0
2017-09-11T01:03:00.627Z,0
2017-09-11T01:04:01.268Z,0
2017-09-11T01:05:01.879Z,0
2017-09-11T01:06:02.489Z,0
2017-09-11T01:07:03.247Z,0
2017-09-11T01:08:03.864Z,0
2017-09-11T01:09:04.475Z,0
2017-09-11T01:10:05.083Z,0
2017-09-11T01:11:05.692Z,0
2017-09-11T01:12:06.450Z,0
2017-09-11T01:13:07.059Z,0
2017-09-11T01:14:07.670Z,0
2017-09-11T01:15:08.278Z,0
2017-09-11T01:16:08.891Z,0
2017-09-11T01:17:09.649Z,0
2017-09-11T01:18:10.266Z,0
2017-09-11T01:19:10.871Z,0
2017-09-11T01:20:11.480Z,0
2017-09-11T01:21:12.095Z,0
2017-09-11T01:22:12.855Z,0
2017-09-11T01:23:13.461Z,0
2017-09-11T01:24:14.103Z,0
2017-09-11T01:25:14.717Z,0
2017-09-11T01:26:15.323Z,0
2017-09-11T01:27:16.082Z,0
2017-09-11T01:28:16.697Z,0
2017-09-11T01:29:17.337Z,0
2017-09-11T01:30:17.948Z,0
2017-09-11T01:31:18.556Z,0
2017-09-11T01:32:19.320Z,0
2017-09-11T01:33:19.927Z,0
2017-09-11T01:34:20.536Z,0
2017-09-11T01:35:21.143Z,0
2017-09-11T01:36:21.758Z,0
2017-09-11T01:37:22.530Z,0
2017-09-11T01:38:23.135Z,0
2017-09-11T01:39:23.743Z,0
2017-09-11T01:40:24.361Z,0
2017-09-11T01:41:24.968Z,0
2017-09-11T01:42:25.727Z,0
2017-09-11T01:43:26.336Z,0
2017-09-11T01:44:26.945Z,0
2017-09-11T01:45:27.556Z,0
2017-09-11T01:46:28.172Z,0
2017-09-11T01:47:28.927Z,0
2017-09-11T01:48:29.538Z,0
2017-09-11T01:49:30.147Z,0
2017-09-11T01:50:30.755Z,0
2017-09-11T01:51:31.365Z,0
2017-09-11T01:52:32.125Z,0
2017-09-11T01:53:32.734Z,0
2017-09-11T01:54:33.349Z,0
2017-09-11T01:55:33.957Z,0
2017-09-11T01:56:34.565Z,0
2017-09-11T01:57:35.329Z,0
2017-09-11T01:58:35.937Z,0
2017-09-11T01:59:36.546Z,0
2017-09-11T02:00:37.157Z,0
2017-09-11T02:01:37.765Z,0
2017-09-11T02:02:38.523Z,0
2017-09-11T02:03:39.138Z,0
2017-09-11T02:04:39.744Z,0
2017-09-11T02:05:40.353Z,0
2017-09-11T02:06:40.962Z,0
2017-09-11T02:07:41.720Z,0
2017-09-11T02:08:42.329Z,0
2017-09-11T02:09:42.938Z,0
2017-09-11T02:10:43.547Z,0
2017-09-11T02:11:44.155Z,0
2017-09-11T02:12:44.915Z,0
2017-09-11T02:13:45.526Z,0
2017-09-11T02:14:46.140Z,0
2017-09-11T02:15:46.787Z,0
2017-09-11T02:16:47.397Z,0
2017-09-11T02:17:48.153Z,0
2017-09-11T02:18:48.762Z,0
2017-09-11T02:19:49.377Z,0
2017-09-11T02:20:49.984Z,0
2017-09-11T02:21:50.599Z,0
2017-09-11T02:22:51.358Z,0
2017-09-11T02:23:51.973Z,0
2017-09-11T02:24:52.586Z,0
2017-09-11T02:25:53.198Z,0
2017-09-11T02:26:53.811Z,0
2017-09-11T02:27:54.568Z,0
2017-09-11T02:28:55.178Z,0
2017-09-11T02:29:55.791Z,0
2017-09-11T02:30:56.438Z,0
2017-09-11T02:31:57.045Z,0
2017-09-11T02:32:57.808Z,0
2017-09-11T02:33:58.417Z,0
2017-09-11T02:34:59.031Z,0
2017-09-11T02:35:59.638Z,0
2017-09-11T02:37:00.250Z,0
2017-09-11T02:38:01.013Z,0
2017-09-11T02:39:01.619Z,0
2017-09-11T02:40:02.228Z,0
2017-09-11T02:41:02.840Z,0
2017-09-11T02:42:03.447Z,0
2017-09-11T02:43:04.207Z,0
2017-09-11T02:44:04.823Z,0
2017-09-11T02:45:05.433Z,0
2017-09-11T02:46:06.044Z,0
2017-09-11T02:47:06.649Z,0
2017-09-11T02:48:07.415Z,0
2017-09-11T02:49:08.028Z,0
2017-09-11T02:50:08.635Z,0
2017-09-11T02:51:09.279Z,0
2017-09-11T02:52:09.887Z,0
2017-09-11T02:53:10.649Z,0
2017-09-11T02:54:11.264Z,0
2017-09-11T02:55:11.865Z,0
2017-09-11T02:56:12.505Z,0
2017-09-11T02:57:13.115Z,0
2017-09-11T02:58:13.873Z,0
2017-09-11T02:59:14.483Z,0
2017-09-11T03:00:15.092Z,0
2017-09-11T03:01:15.700Z,0
2017-09-11T03:02:16.308Z,0
2017-09-11T03:03:17.073Z,0
2017-09-11T03:04:17.680Z,0
2017-09-11T03:05:18.288Z,0
2017-09-11T03:06:18.896Z,0
2017-09-11T03:07:19.504Z,0
2017-09-11T03:08:20.269Z,0
2017-09-11T03:09:20.880Z,0
2017-09-11T03:10:21.492Z,0
2017-09-11T03:11:22.099Z,0
2017-09-11T03:12:22.709Z,0
2017-09-11T03:13:23.468Z,0
2017-09-11T03:14:24.078Z,0
2017-09-11T03:15:24.687Z,0
2017-09-11T03:16:25.303Z,0
2017-09-11T03:17:25.916Z,0
2017-09-11T03:18:26.671Z,0
2017-09-11T03:19:27.282Z,0
2017-09-11T03:20:27.891Z,0
2017-09-11T03:21:28.500Z,0
2017-09-11T03:22:29.109Z,0
2017-09-11T03:23:29.868Z,0
2017-09-11T03:24:30.479Z,0
2017-09-11T03:25:31.087Z,0
2017-09-11T03:26:31.695Z,0
2017-09-11T03:27:32.304Z,0
2017-09-11T03:28:33.095Z,0
2017-09-11T03:29:33.710Z,0
2017-09-11T03:30:34.352Z,0
2017-09-11T03:31:34.961Z,0
2017-09-11T03:32:35.574Z,0
2017-09-11T03:33:36.337Z,0
2017-09-11T03:34:36.949Z,0
2017-09-11T03:35:37.556Z,0
2017-09-11T03:36:38.204Z,0
2017-09-11T03:37:38.807Z,0
2017-09-11T03:38:39.567Z,0
2017-09-11T03:39:40.208Z,0
2017-09-11T03:40:40.816Z,0
2017-09-11T03:41:41.424Z,0
2017-09-11T03:42:42.035Z,0
2017-09-11T03:43:42.794Z,0
2017-09-11T03:44:43.434Z,0
2017-09-11T03:45:44.043Z,0
2017-09-11T03:46:44.652Z,0
2017-09-11T03:47:45.291Z,0
2017-09-11T03:48:46.050Z,0
2017-09-11T03:49:46.665Z,0
2017-09-11T03:50:47.272Z,0
2017-09-11T03:51:47.886Z,0
2017-09-11T03:52:48.492Z,0
2017-09-11T03:53:49.250Z,0
2017-09-11T03:54:49.860Z,0
2017-09-11T03:55:50.475Z,0
2017-09-11T03:56:51.116Z,0
2017-09-11T03:57:51.723Z,0
2017-09-11T03:58:52.481Z,0
2017-09-11T03:59:53.092Z,0
2017-09-11T04:00:53.706Z,0
2017-09-11T04:01:54.311Z,0
2017-09-11T04:02:54.920Z,0
2017-09-11T04:03:55.682Z,0
2017-09-11T04:04:56.291Z,0
2017-09-11T04:05:56.900Z,0
2017-09-11T04:06:57.514Z,0
2017-09-11T04:07:58.118Z,0
2017-09-11T04:08:58.879Z,0
2017-09-11T04:09:59.495Z,0
2017-09-11T04:11:00.133Z,0
2017-09-11T04:12:00.746Z,0
2017-09-11T04:13:01.352Z,0
2017-09-11T04:14:02.115Z,0
2017-09-11T04:15:02.755Z,0
2017-09-11T04:16:03.365Z,0
2017-09-11T04:17:03.973Z,0
2017-09-11T04:18:04.619Z,0
2017-09-11T04:19:05.376Z,0
2017-09-11T04:20:05.984Z,0
2017-09-11T04:21:06.599Z,0
2017-09-11T04:22:07.209Z,0
2017-09-11T04:23:07.819Z,0
2017-09-11T04:24:08.609Z,0
2017-09-11T04:25:09.227Z,0
2017-09-11T04:26:09.828Z,0
2017-09-11T04:27:10.437Z,0
2017-09-11T04:28:11.052Z,0
2017-09-11T04:29:11.807Z,0
2017-09-11T04:30:12.417Z,0
2017-09-11T04:31:13.030Z,0
2017-09-11T04:32:13.637Z,0
2017-09-11T04:33:14.249Z,0
2017-09-11T04:34:15.006Z,0
2017-09-11T04:35:15.616Z,0
2017-09-11T04:36:16.224Z,0
2017-09-11T04:37:16.838Z,0
2017-09-11T04:38:17.451Z,0
2017-09-11T04:39:18.208Z,0
2017-09-11T04:40:18.822Z,0
2017-09-11T04:41:19.427Z,0
2017-09-11T04:42:20.038Z,0
2017-09-11T04:43:20.654Z,0
2017-09-11T04:44:21.409Z,0
2017-09-11T04:45:22.018Z,0
2017-09-11T04:46:22.634Z,0
2017-09-11T04:47:23.247Z,0
2017-09-11T04:48:23.852Z,0
2017-09-11T04:49:24.617Z,0
2017-09-11T04:50:25.227Z,0
2017-09-11T04:51:25.835Z,0
2017-09-11T04:52:26.443Z,0
2017-09-11T04:53:27.053Z,0
2017-09-11T04:54:27.811Z,4
2017-09-11T04:55:28.426Z,0
2017-09-11T04:56:29.036Z,0
2017-09-11T04:57:29.678Z,0
2017-09-11T04:58:30.285Z,0
2017-09-11T04:59:31.050Z,0
2017-09-11T05:00:31.657Z,4
2017-09-11T05:01:32.301Z,4
2017-09-11T05:02:32.909Z,4
2017-09-11T05:03:33.517Z,4
2017-09-11T05:04:34.276Z,4
2017-09-11T05:05:34.891Z,4
2017-09-11T05:06:35.501Z,8
2017-09-11T05:07:36.112Z,4
2017-09-11T05:08:36.725Z,4
2017-09-11T05:09:37.515Z,4
2017-09-11T05:10:38.125Z,8
2017-09-11T05:11:38.739Z,8
2017-09-11T05:12:39.377Z,8
2017-09-11T05:13:39.988Z,4
2017-09-11T05:14:40.753Z,8
2017-09-11T05:15:41.360Z,8
2017-09-11T05:16:41.970Z,8
2017-09-11T05:17:42.578Z,8
2017-09-11T05:18:43.188Z,8
2017-09-11T05:19:43.990Z,8
2017-09-11T05:20:44.595Z,8
2017-09-11T05:21:45.238Z,8
2017-09-11T05:22:45.853Z,8
2017-09-11T05:23:46.463Z,12
2017-09-11T05:24:47.250Z,12
2017-09-11T05:25:47.865Z,12
2017-09-11T05:26:48.473Z,16
2017-09-11T05:27:49.083Z,12
2017-09-11T05:28:49.694Z,16
2017-09-11T05:29:50.456Z,12
2017-09-11T05:30:51.066Z,12
2017-09-11T05:31:51.676Z,12
2017-09-11T05:32:52.286Z,12
2017-09-11T05:33:52.902Z,12
2017-09-11T05:34:53.665Z,12
2017-09-11T05:35:54.272Z,16
2017-09-11T05:36:54.913Z,16
2017-09-11T05:37:55.522Z,16
2017-09-11T05:38:56.134Z,16
2017-09-11T05:39:56.899Z,16
2017-09-11T05:40:57.509Z,16
2017-09-11T05:41:58.123Z,20
2017-09-11T05:42:58.729Z,20
2017-09-11T05:43:59.340Z,20
2017-09-11T05:45:00.102Z,20
2017-09-11T05:46:00.711Z,20
2017-09-11T05:47:01.325Z,20
2017-09-11T05:48:01.935Z,24
2017-09-11T05:49:02.545Z,20
2017-09-11T05:50:03.308Z,24
2017-09-11T05:51:03.917Z,24
2017-09-11T05:52:04.530Z,24
2017-09-11T05:53:05.143Z,24
2017-09-11T05:54:05.757Z,28
2017-09-11T05:55:06.554Z,28
2017-09-11T05:56:07.163Z,28
2017-09-11T05:57:07.771Z,28
2017-09-11T05:58:08.398Z,28
2017-09-11T05:59:08.994Z,28
2017-09-11T06:00:09.754Z,28
2017-09-11T06:01:10.366Z,28
2017-09-11T06:02:10.981Z,28
2017-09-11T06:03:11.595Z,28
2017-09-11T06:04:12.202Z,32
2017-09-11T06:05:12.964Z,32
2017-09-11T06:06:13.579Z,28
2017-09-11T06:07:14.187Z,32
2017-09-11T06:08:14.797Z,32
2017-09-11T06:09:15.407Z,32
2017-09-11T06:10:16.168Z,36
2017-09-11T06:11:16.778Z,32
2017-09-11T06:12:17.393Z,36
2017-09-11T06:13:18.003Z,36
2017-09-11T06:14:18.612Z,40
2017-09-11T06:15:19.371Z,40
2017-09-11T06:16:19.981Z,40
2017-09-11T06:17:20.591Z,40
2017-09-11T06:18:21.203Z,40
2017-09-11T06:19:21.811Z,44
2017-09-11T06:20:22.576Z,40
2017-09-11T06:21:23.183Z,40
2017-09-11T06:22:23.793Z,44
2017-09-11T06:23:24.409Z,44
2017-09-11T06:24:25.016Z,44
2017-09-11T06:25:25.779Z,48
2017-09-11T06:26:26.390Z,48
2017-09-11T06:27:27.006Z,48
2017-09-11T06:28:27.615Z,56
2017-09-11T06:29:28.224Z,56
2017-09-11T06:30:28.985Z,56
2017-09-11T06:31:29.607Z,56
2017-09-11T06:32:30.212Z,56
2017-09-11T06:33:30.821Z,60
2017-09-11T06:34:31.437Z,60
2017-09-11T06:35:32.193Z,60
2017-09-11T06:36:32.804Z,64
2017-09-11T06:37:33.414Z,68
2017-09-11T06:38:34.031Z,56
2017-09-11T06:39:34.639Z,48
2017-09-11T06:40:35.398Z,48
2017-09-11T06:41:36.008Z,52
2017-09-11T06:42:36.623Z,56
2017-09-11T06:43:37.232Z,56
2017-09-11T06:44:37.855Z,60
2017-09-11T06:45:38.642Z,64
2017-09-11T06:46:39.257Z,72
2017-09-11T06:47:39.866Z,80
2017-09-11T06:48:40.477Z,72
2017-09-11T06:49:41.093Z,72
2017-09-11T06:50:41.851Z,72
2017-09-11T06:51:42.465Z,80
2017-09-11T06:52:43.076Z,88
2017-09-11T06:53:43.693Z,76
2017-09-11T06:54:44.303Z,84
2017-09-11T06:55:45.063Z,80
2017-09-11T06:56:45.681Z,92
2017-09-11T06:57:46.289Z,72
2017-09-11T06:58:46.900Z,72
2017-09-11T06:59:47.548Z,68
2017-09-11T07:00:48.307Z,64
2017-09-11T07:01:48.923Z,64
2017-09-11T07:02:49.533Z,60
2017-09-11T07:03:50.150Z,56
2017-09-11T07:04:50.764Z,56
2017-09-11T07:05:51.522Z,60
2017-09-11T07:06:52.132Z,60
2017-09-11T07:07:52.744Z,60
2017-09-11T07:08:53.361Z,64
2017-09-11T07:09:53.969Z,72
2017-09-11T07:10:54.766Z,72
2017-09-11T07:11:55.375Z,88
2017-09-11T07:12:55.987Z,80
2017-09-11T07:13:56.597Z,92
2017-09-11T07:14:57.214Z,92
2017-09-11T07:15:57.973Z,88
2017-09-11T07:16:58.592Z,92
2017-09-11T07:17:59.199Z,92
2017-09-11T07:18:59.812Z,92
2017-09-11T07:20:00.426Z,92
2017-09-11T07:21:01.186Z,96
2017-09-11T07:22:01.801Z,96
2017-09-11T07:23:02.414Z,96
2017-09-11T07:24:03.032Z,100
2017-09-11T07:25:03.640Z,96
2017-09-11T07:26:04.402Z,96
2017-09-11T07:27:05.020Z,96
2017-09-11T07:28:05.628Z,96
2017-09-11T07:29:06.273Z,96
2017-09-11T07:30:06.884Z,96
2017-09-11T07:31:07.496Z,100
2017-09-11T07:32:08.110Z,100
2017-09-11T07:33:08.875Z,100
2017-09-11T07:34:09.519Z,100
2017-09-11T07:35:10.132Z,100
2017-09-11T07:36:10.752Z,104
2017-09-11T07:37:11.363Z,104
2017-09-11T07:38:12.159Z,108
2017-09-11T07:39:12.773Z,100
2017-09-11T07:40:13.385Z,108
2017-09-11T07:41:14.031Z,108
2017-09-11T07:42:14.651Z,108
2017-09-11T07:43:15.411Z,112
2017-09-11T07:44:16.033Z,112
2017-09-11T07:45:16.648Z,112
2017-09-11T07:46:17.262Z,112
2017-09-11T07:47:17.875Z,116
2017-09-11T07:48:18.643Z,116
2017-09-11T07:49:19.251Z,116
2017-09-11T07:50:19.865Z,120
2017-09-11T07:51:20.485Z,120
2017-09-11T07:52:21.096Z,124
2017-09-11T07:53:21.860Z,124
2017-09-11T07:54:22.473Z,124
2017-09-11T07:55:23.088Z,128
2017-09-11T07:56:23.700Z,124
2017-09-11T07:57:24.310Z,128
2017-09-11T07:58:25.081Z,128
2017-09-11T07:59:25.720Z,128
2017-09-11T08:00:26.334Z,132
2017-09-11T08:01:26.946Z,132
2017-09-11T08:02:27.562Z,132
2017-09-11T08:03:28.360Z,136
2017-09-11T08:04:28.969Z,136
2017-09-11T08:05:29.583Z,136
2017-09-11T08:06:30.196Z,140
2017-09-11T08:07:30.812Z,140
2017-09-11T08:08:31.575Z,144
2017-09-11T08:09:32.191Z,144
2017-09-11T08:10:32.806Z,144
2017-09-11T08:11:33.417Z,148
2017-09-11T08:12:34.030Z,148
2017-09-11T08:13:34.794Z,148
2017-09-11T08:14:35.408Z,152
2017-09-11T08:15:36.021Z,156
2017-09-11T08:16:36.633Z,160
2017-09-11T08:17:37.249Z,156
2017-09-11T08:18:38.014Z,156
2017-09-11T08:19:38.629Z,164
2017-09-11T08:20:39.243Z,160
2017-09-11T08:21:39.857Z,164
2017-09-11T08:22:40.471Z,168
2017-09-11T08:23:41.234Z,164
2017-09-11T08:24:41.854Z,172
2017-09-11T08:25:42.479Z,172
2017-09-11T08:26:43.086Z,172
2017-09-11T08:27:43.699Z,176
2017-09-11T08:28:44.566Z,176
2017-09-11T08:29:45.215Z,180
2017-09-11T08:30:45.827Z,184
2017-09-11T08:31:46.443Z,188
2017-09-11T08:32:47.057Z,188
2017-09-11T08:33:47.922Z,192
2017-09-11T08:34:48.538Z,196
2017-09-11T08:35:49.160Z,200
2017-09-11T08:36:49.772Z,204
2017-09-11T08:37:50.387Z,204
2017-09-11T08:38:51.157Z,208
2017-09-11T08:39:51.771Z,212
2017-09-11T08:40:52.392Z,212
2017-09-11T08:41:53.011Z,216
2017-09-11T08:42:53.626Z,224
2017-09-11T08:43:54.391Z,224
2017-09-11T08:44:55.018Z,228
2017-09-11T08:45:55.624Z,228
2017-09-11T08:46:56.245Z,236
2017-09-11T08:47:56.859Z,232
2017-09-11T08:48:57.624Z,232
2017-09-11T08:49:58.247Z,244
2017-09-11T08:50:58.862Z,200
2017-09-11T08:51:59.515Z,220
2017-09-11T08:53:00.128Z,248
2017-09-11T08:54:00.899Z,248
2017-09-11T08:55:01.518Z,252
2017-09-11T08:56:02.132Z,252
2017-09-11T08:57:02.747Z,256
2017-09-11T08:58:03.367Z,264
2017-09-11T08:59:04.133Z,264
2017-09-11T09:00:04.754Z,268
2017-09-11T09:01:05.368Z,272
2017-09-11T09:02:05.989Z,280
2017-09-11T09:03:06.602Z,284
2017-09-11T09:04:07.374Z,288
2017-09-11T09:05:07.989Z,292
2017-09-11T09:06:08.635Z,292
2017-09-11T09:07:09.255Z,300
2017-09-11T09:08:09.870Z,308
2017-09-11T09:09:10.668Z,312
2017-09-11T09:10:11.284Z,320
2017-09-11T09:11:11.902Z,332
2017-09-11T09:12:12.519Z,336
2017-09-11T09:13:13.134Z,344
2017-09-11T09:14:13.905Z,348
2017-09-11T09:15:14.520Z,352
2017-09-11T09:16:15.167Z,364
2017-09-11T09:17:15.789Z,368
2017-09-11T09:18:16.402Z,376
2017-09-11T09:19:17.173Z,388
2017-09-11T09:20:17.791Z,396
2017-09-11T09:21:18.409Z,404
2017-09-11T09:22:19.025Z,416
2017-09-11T09:23:19.641Z,424
2017-09-11T09:24:20.407Z,432
2017-09-11T09:25:21.024Z,440
2017-09-11T09:26:21.640Z,456
2017-09-11T09:27:22.263Z,460
2017-09-11T09:28:22.883Z,472
2017-09-11T09:29:23.650Z,484
2017-09-11T09:30:24.298Z,492
2017-09-11T09:31:24.921Z,500
2017-09-11T09:32:25.540Z,512
2017-09-11T09:33:26.159Z,520
2017-09-11T09:34:26.960Z,528
2017-09-11T09:35:27.582Z,540
2017-09-11T09:36:28.197Z,548
2017-09-11T09:37:28.816Z,560
2017-09-11T09:38:29.432Z,572
2017-09-11T09:39:30.205Z,584
2017-09-11T09:40:30.824Z,592
2017-09-11T09:41:31.439Z,616
2017-09-11T09:42:32.055Z,600
2017-09-11T09:43:32.673Z,628
2017-09-11T09:44:33.441Z,632
2017-09-11T09:45:34.066Z,648
2017-09-11T09:46:34.680Z,656
2017-09-11T09:47:35.303Z,664
2017-09-11T09:48:35.922Z,676
2017-09-11T09:49:36.687Z,684
2017-09-11T09:50:37.304Z,696
2017-09-11T09:51:37.921Z,704
2017-09-11T09:52:38.541Z,716
2017-09-11T09:53:39.156Z,724
2017-09-11T09:54:40.075Z,736
2017-09-11T09:55:40.695Z,748
2017-09-11T09:56:41.342Z,752
2017-09-11T09:57:41.963Z,764
2017-09-11T09:58:42.582Z,772
2017-09-11T09:59:43.349Z,784
2017-09-11T10:00:43.977Z,792
2017-09-11T10:01:44.590Z,804
2017-09-11T10:02:45.205Z,812
2017-09-11T10:03:45.822Z,824
2017-09-11T10:04:46.592Z,828
2017-09-11T10:05:47.260Z,840
2017-09-11T10:06:47.862Z,852
2017-09-11T10:07:48.480Z,860
2017-09-11T10:08:49.098Z,864
2017-09-11T10:09:49.871Z,872
2017-09-11T10:10:50.485Z,880
2017-09-11T10:11:51.103Z,888
2017-09-11T10:12:51.723Z,896
2017-09-11T10:13:52.340Z,904
2017-09-11T10:14:53.109Z,912
2017-09-11T10:15:53.733Z,916
2017-09-11T10:16:54.350Z,924
2017-09-11T10:17:54.999Z,936
2017-09-11T10:18:55.624Z,940
2017-09-11T10:19:56.389Z,944
2017-09-11T10:20:57.013Z,952
2017-09-11T10:21:57.634Z,960
2017-09-11T10:22:58.248Z,964
2017-09-11T10:23:58.868Z,972
2017-09-11T10:24:59.669Z,980
2017-09-11T10:26:00.287Z,988
2017-09-11T10:27:00.908Z,992
2017-09-11T10:28:01.529Z,1000
2017-09-11T10:29:02.180Z,1004
2017-09-11T10:30:02.949Z,1016
2017-09-11T10:31:03.575Z,1016
2017-09-11T10:32:04.192Z,1024
2017-09-11T10:33:04.817Z,1028
2017-09-11T10:34:05.435Z,1040
2017-09-11T10:35:06.239Z,1036
2017-09-11T10:36:06.864Z,1048
2017-09-11T10:37:07.487Z,1056
2017-09-11T10:38:08.100Z,1056
2017-09-11T10:39:08.719Z,1064
2017-09-11T10:40:09.497Z,1068
2017-09-11T10:41:10.109Z,1076
2017-09-11T10:42:10.729Z,1080
2017-09-11T10:43:11.354Z,1080
2017-09-11T10:44:11.974Z,1080
2017-09-11T10:45:12.743Z,1092
2017-09-11T10:46:13.361Z,1096
2017-09-11T10:47:13.987Z,1100
2017-09-11T10:48:14.643Z,1104
2017-09-11T10:49:15.294Z,1108
2017-09-11T10:50:16.223Z,1112
2017-09-11T10:51:16.877Z,1120
2017-09-11T10:52:17.501Z,1120
2017-09-11T10:53:18.117Z,1128
2017-09-11T10:54:18.738Z,1128
2017-09-11T10:55:19.358Z,1132
2017-09-11T10:56:20.128Z,1136
2017-09-11T10:57:20.750Z,1144
2017-09-11T10:58:21.370Z,1144
2017-09-11T10:59:21.991Z,1148
2017-09-11T11:00:22.642Z,1152
2017-09-11T11:01:23.413Z,1156
2017-09-11T11:02:24.033Z,1164
2017-09-11T11:03:24.655Z,1164
2017-09-11T11:04:25.288Z,1164
2017-09-11T11:05:25.940Z,1172
2017-09-11T11:06:26.806Z,1180
2017-09-11T11:07:27.464Z,1180
2017-09-11T11:08:28.080Z,1184
2017-09-11T11:09:28.733Z,1184
2017-09-11T11:10:29.355Z,1196
2017-09-11T11:11:30.226Z,1204
2017-09-11T11:12:30.851Z,1220
2017-09-11T11:13:31.474Z,1228
2017-09-11T11:14:32.090Z,1232
2017-09-11T11:15:32.713Z,1244
2017-09-11T11:16:33.483Z,1152
2017-09-11T11:17:34.104Z,1232
2017-09-11T11:18:34.725Z,1224
2017-09-11T11:19:35.381Z,1220
2017-09-11T11:20:35.997Z,1224
2017-09-11T11:21:36.930Z,1228
2017-09-11T11:22:37.570Z,1232
2017-09-11T11:23:38.193Z,1236
2017-09-11T11:24:38.814Z,1236
2017-09-11T11:25:39.436Z,1236
2017-09-11T11:26:40.207Z,1244
2017-09-11T11:27:40.828Z,1248
2017-09-11T11:28:41.467Z,1240
2017-09-11T11:29:42.075Z,1240
2017-09-11T11:30:42.692Z,1244
2017-09-11T11:31:43.463Z,1248
2017-09-11T11:32:44.089Z,1248
2017-09-11T11:33:44.712Z,1256
2017-09-11T11:34:45.331Z,1252
2017-09-11T11:35:45.953Z,1256
2017-09-11T11:36:46.727Z,1264
2017-09-11T11:37:47.357Z,1280
2017-09-11T11:38:47.971Z,1280
2017-09-11T11:39:48.590Z,1288
2017-09-11T11:40:49.209Z,1304
2017-09-11T11:41:49.982Z,1304
2017-09-11T11:42:50.608Z,1308
2017-09-11T11:43:51.226Z,1308
2017-09-11T11:44:51.849Z,1308
2017-09-11T11:45:52.474Z,1308
2017-09-11T11:46:53.247Z,1304
2017-09-11T11:47:53.866Z,1296
2017-09-11T11:48:54.494Z,1300
2017-09-11T11:49:55.112Z,1312
2017-09-11T11:50:55.739Z,1324
2017-09-11T11:51:56.508Z,1340
2017-09-11T11:52:57.127Z,1344
2017-09-11T11:53:57.748Z,1352
2017-09-11T11:54:58.370Z,1380
2017-09-11T11:55:58.990Z,1400
2017-09-11T11:56:59.762Z,1408
2017-09-11T11:58:00.383Z,1404
2017-09-11T11:59:01.005Z,1408
2017-09-11T12:00:01.627Z,1416
2017-09-11T12:01:02.246Z,1440
2017-09-11T12:02:03.055Z,1464
2017-09-11T12:03:03.678Z,1364
2017-09-11T12:04:04.295Z,1560
2017-09-11T12:05:04.923Z,1384
2017-09-11T12:06:05.542Z,1596
2017-09-11T12:07:06.463Z,1600
2017-09-11T12:08:07.087Z,740
2017-09-11T12:09:07.705Z,552
2017-09-11T12:10:08.327Z,464
2017-09-11T12:11:08.946Z,440
2017-09-11T12:12:09.816Z,448
2017-09-11T12:13:10.435Z,464
2017-09-11T12:14:11.058Z,476
2017-09-11T12:15:11.676Z,504
2017-09-11T12:16:12.296Z,416
2017-09-11T12:17:13.225Z,384
2017-09-11T12:18:13.872Z,384
2017-09-11T12:19:14.492Z,376
2017-09-11T12:20:15.118Z,360
2017-09-11T12:21:15.735Z,344
2017-09-11T12:22:16.505Z,332
2017-09-11T12:23:17.126Z,344
2017-09-11T12:24:17.751Z,352
2017-09-11T12:25:18.371Z,372
2017-09-11T12:26:18.990Z,428
2017-09-11T12:27:19.759Z,620
2017-09-11T12:28:20.381Z,1136
2017-09-11T12:29:21.000Z,780
2017-09-11T12:30:21.618Z,508
2017-09-11T12:31:22.244Z,552
2017-09-11T12:32:23.008Z,624
2017-09-11T12:33:23.626Z,564
2017-09-11T12:34:24.247Z,476
2017-09-11T12:35:24.872Z,652
2017-09-11T12:36:25.497Z,612
2017-09-11T12:37:26.299Z,1100
2017-09-11T12:38:26.922Z,1244
2017-09-11T12:39:27.536Z,744
2017-09-11T12:40:28.154Z,644
2017-09-11T12:41:28.812Z,692
2017-09-11T12:42:29.585Z,520
2017-09-11T12:43:30.200Z,480
2017-09-11T12:44:30.819Z,544
2017-09-11T12:45:31.439Z,528
2017-09-11T12:46:32.060Z,484
2017-09-11T12:47:32.833Z,540
2017-09-11T12:48:33.457Z,600
2017-09-11T12:49:34.072Z,624
2017-09-11T12:50:34.690Z,844
2017-09-11T12:51:35.312Z,1260
2017-09-11T12:52:36.088Z,1536
2017-09-11T12:53:36.705Z,1560
2017-09-11T12:54:37.330Z,1524
2017-09-11T12:55:37.952Z,656
2017-09-11T12:56:38.575Z,416
2017-09-11T12:57:39.341Z,396
2017-09-11T12:58:39.968Z,408
2017-09-11T12:59:40.582Z,436
2017-09-11T13:00:41.203Z,488
2017-09-11T13:01:41.820Z,588
2017-09-11T13:02:42.592Z,1512
2017-09-11T13:03:43.212Z,1556
2017-09-11T13:04:43.839Z,1540
2017-09-11T13:05:44.458Z,644
2017-09-11T13:06:45.080Z,1416
2017-09-11T13:07:45.847Z,1484
2017-09-11T13:08:46.498Z,1456
2017-09-11T13:09:47.124Z,1428
2017-09-11T13:10:47.741Z,1408
2017-09-11T13:11:48.362Z,1384
2017-09-11T13:12:49.139Z,1348
2017-09-11T13:13:49.764Z,1388
2017-09-11T13:14:50.381Z,1444
2017-09-11T13:15:51.002Z,1408
2017-09-11T13:16:51.623Z,1368
2017-09-11T13:17:52.394Z,1360
2017-09-11T13:18:53.014Z,1364
2017-09-11T13:19:53.638Z,1372
2017-09-11T13:20:54.258Z,1380
2017-09-11T13:21:54.880Z,1416
2017-09-11T13:22:55.650Z,1152
2017-09-11T13:23:56.303Z,1340
2017-09-11T13:24:56.931Z,1500
2017-09-11T13:25:57.550Z,1492
2017-09-11T13:26:58.171Z,1460
2017-09-11T13:27:58.943Z,1460
2017-09-11T13:28:59.602Z,820
2017-09-11T13:30:00.221Z,1440
2017-09-11T13:31:00.842Z,1492
2017-09-11T13:32:01.463Z,1472
2017-09-11T13:33:02.235Z,1504
2017-09-11T13:34:02.861Z,768
2017-09-11T13:35:03.477Z,488
2017-09-11T13:36:04.103Z,448
2017-09-11T13:37:04.757Z,1140
2017-09-11T13:38:05.530Z,360
2017-09-11T13:39:06.151Z,360
2017-09-11T13:40:06.772Z,384
2017-09-11T13:41:07.391Z,460
2017-09-11T13:42:08.017Z,452
2017-09-11T13:43:08.787Z,428
2017-09-11T13:44:09.407Z,492
2017-09-11T13:45:10.057Z,396
2017-09-11T13:46:10.677Z,376
2017-09-11T13:47:11.296Z,368
2017-09-11T13:48:12.067Z,360
2017-09-11T13:49:12.686Z,352
2017-09-11T13:50:13.338Z,336
2017-09-11T13:51:13.958Z,340
2017-09-11T13:52:14.578Z,372
2017-09-11T13:53:15.348Z,412
2017-09-11T13:54:15.971Z,464
2017-09-11T13:55:16.590Z,468
2017-09-11T13:56:17.215Z,464
2017-09-11T13:57:17.831Z,480
2017-09-11T13:58:18.602Z,400
2017-09-11T13:59:19.227Z,356
2017-09-11T14:00:19.846Z,356
2017-09-11T14:01:20.466Z,412
2017-09-11T14:02:21.088Z,464
2017-09-11T14:03:21.953Z,932
2017-09-11T14:04:22.572Z,560
2017-09-11T14:05:23.193Z,660
2017-09-11T14:06:23.848Z,1420
2017-09-11T14:07:24.507Z,520
2017-09-11T14:08:25.273Z,696
2017-09-11T14:09:25.894Z,484
2017-09-11T14:10:26.513Z,328
2017-09-11T14:11:27.133Z,304
2017-09-11T14:12:27.753Z,304
2017-09-11T14:13:28.553Z,348
2017-09-11T14:14:29.172Z,504
2017-09-11T14:15:29.793Z,672
2017-09-11T14:16:30.413Z,1492